NOTL Lakeshore

*Note: All times are displayed in the local standard time of the station location.
**Rain - Equipment is designed to accurately record liquid precipitation; under conditions when precipitation is not in liquid form, the data displayed may not properly reflect rainfall values.

Date Max Temp
(°C)
Min Temp
(°C)
Avg Temp
(°C)
Rain (mm) Avg RH (%)
Fri, Dec 14, 2018 6.8 1.6 3.8 2.6 85.2
Thu, Dec 13, 2018 6.6 -3.6 0.9 0.6 91.8
Wed, Dec 12, 2018 1.7 -3.7 -0.4 0.0 84.7
Tue, Dec 11, 2018 0.3 -1.5 -0.7 0.0 80.7
Mon, Dec 10, 2018 1.5 -1.9 -0.3 0.0 79.8
Sun, Dec 09, 2018 1.4 -7.0 -1.9 0.0 72.1
Sat, Dec 08, 2018 0.4 -5.2 -2.6 0.0 73.5
DateTime Avg Temp (°C) Rain (mm) RH (%)
Sat, Dec 15, 2018 17:00 3.3 0.0 86.2
Sat, Dec 15, 2018 16:00 3.5 0.0 84.6
Sat, Dec 15, 2018 15:00 3.8 0.0 83.8
Sat, Dec 15, 2018 14:00 4.0 0.0 83.4
Sat, Dec 15, 2018 13:00 4.3 0.0 81.6
Sat, Dec 15, 2018 12:00 4.1 0.0 84.0
Sat, Dec 15, 2018 11:00 3.6 0.0 87.8
Sat, Dec 15, 2018 10:00 3.0 0.0 92.2
Sat, Dec 15, 2018 09:00 2.1 0.0 98.7
Sat, Dec 15, 2018 08:00 1.4 0.0 99.9
Sat, Dec 15, 2018 07:00 1.7 0.0 99.9
Sat, Dec 15, 2018 06:00 2.2 0.0 99.9
Sat, Dec 15, 2018 05:00 0.9 0.0 99.9
Sat, Dec 15, 2018 04:00 0.4 0.0 99.9
Sat, Dec 15, 2018 03:00 1.8 0.0 99.4
Sat, Dec 15, 2018 02:00 2.6 0.0 95.6
Sat, Dec 15, 2018 01:00 3.3 0.0 92.5
Sat, Dec 15, 2018 00:00 4.7 0.0 86.5
Fri, Dec 14, 2018 23:00 5.0 0.0 83.3
Fri, Dec 14, 2018 22:00 4.4 0.0 87.4
Fri, Dec 14, 2018 21:00 4.0 0.0 91.1
Fri, Dec 14, 2018 20:00 3.6 0.0 97.3
Fri, Dec 14, 2018 19:00 2.9 0.0 92.9
Fri, Dec 14, 2018 18:00 2.8 0.0 87.0
Fri, Dec 14, 2018 17:00 5.5 0.0 75.0
Fri, Dec 14, 2018 16:00 6.3 0.0 74.3
Fri, Dec 14, 2018 15:00 5.7 0.0 82.0
Fri, Dec 14, 2018 14:00 5.6 0.0 84.6
Fri, Dec 14, 2018 13:00 4.7 0.0 88.8
Fri, Dec 14, 2018 12:00 4.2 0.6 91.8
Fri, Dec 14, 2018 11:00 4.1 1.4 88.3
Fri, Dec 14, 2018 10:00 4.4 0.6 80.2
Fri, Dec 14, 2018 09:00 3.8 0.0 81.8
Fri, Dec 14, 2018 08:00 3.4 0.0 82.4
Fri, Dec 14, 2018 07:00 3.2 0.0 82.3
Fri, Dec 14, 2018 06:00 2.5 0.0 83.1
Fri, Dec 14, 2018 05:00 2.7 0.0 81.6
Fri, Dec 14, 2018 04:00 2.1 0.0 83.2
Fri, Dec 14, 2018 03:00 1.7 0.0 86.2
Fri, Dec 14, 2018 02:00 2.0 0.0 85.8
Fri, Dec 14, 2018 01:00 1.8 0.0 87.6
Fri, Dec 14, 2018 00:00 1.4 0.0 88.3
Thu, Dec 13, 2018 23:00 1.5 0.0 87.5
Thu, Dec 13, 2018 22:00 1.0 0.0 91.3
Thu, Dec 13, 2018 21:00 1.7 0.0 89.0
Thu, Dec 13, 2018 20:00 1.9 0.0 89.9
Thu, Dec 13, 2018 19:00 1.9 0.0 90.4
Thu, Dec 13, 2018 18:00 1.7 0.0 91.1


asterix Register now to access more data! asterix